Time;durP1;ratioP1;P1;durP2;ratioP2;P2;SDS_P1;SDS_P2;PMS_P1;PMS_P2;Temp;Humidity;BMP_temperature;BMP_pressure;BME280_temperature;BME280_humidity;BME280_pressure;Samples;Min_cycle;Max_cycle;Signal;HPM_P1;HPM_P2
2023/10/11 00:02:17;;;;;;;15.32;5.70;;;;;;;;;;4980391;28;20022;-77
2023/10/11 00:04:42;;;;;;;11.50;5.20;;;;;;;;;;4983140;28;20018;-79
2023/10/11 00:07:08;;;;;;;16.35;5.60;;;;;;;;;;4983823;28;20299;-77
2023/10/11 00:09:38;;;;;;;11.88;5.10;;;;;;;;;;4987379;28;20028;-77
2023/10/11 00:12:04;;;;;;;11.35;5.18;;;;;;;;;;4980747;28;20268;-78
2023/10/11 00:14:31;;;;;;;11.82;4.90;;;;;;;;;;4988148;28;20034;-78
2023/10/11 00:16:57;;;;;;;13.35;5.25;;;;;;;;;;4983758;28;20030;-77
2023/10/11 00:19:28;;;;;;;11.02;5.05;;;;;;;;;;4973854;28;20022;-76
2023/10/11 00:21:53;;;;;;;14.85;5.25;;;;;;;;;;4968826;28;20053;-77
2023/10/11 00:24:23;;;;;;;12.20;5.50;;;;;;;;;;4969871;28;20334;-79
2023/10/11 00:26:49;;;;;;;12.10;5.47;;;;;;;;;;4980459;28;20037;-78
2023/10/11 00:29:15;;;;;;;12.98;5.28;;;;;;;;;;4987477;28;20038;-77
2023/10/11 00:31:41;;;;;;;12.82;4.90;;;;;;;;;;4983829;28;20029;-77
2023/10/11 00:34:12;;;;;;;10.70;5.10;;;;;;;;;;4978283;28;20030;-78
2023/10/11 00:36:37;;;;;;;15.73;5.20;;;;;;;;;;4981148;28;20030;-77
2023/10/11 00:39:07;;;;;;;13.13;5.15;;;;;;;;;;4977827;28;20599;-77
2023/10/11 00:41:39;;;;;;;13.10;5.13;;;;;;;;;;4984498;28;20077;-78
2023/10/11 00:44:05;;;;;;;11.80;4.97;;;;;;;;;;4980150;28;20113;-79
2023/10/11 00:46:38;;;;;;;10.52;4.97;;;;;;;;;;4981121;28;20053;-78
2023/10/11 00:51:32;;;;;;;14.32;5.10;;;;;;;;;;4976903;28;20046;-77
2023/10/11 00:54:04;;;;;;;14.98;4.93;;;;;;;;;;4976326;28;20215;-77
2023/10/11 00:56:33;;;;;;;10.27;4.93;;;;;;;;;;4980244;28;20035;-77
2023/10/11 00:59:08;;;;;;;13.65;5.43;;;;;;;;;;4977643;28;20684;-77
2023/10/11 01:01:36;;;;;;;12.32;4.72;;;;;;;;;;4985428;28;20385;-76
2023/10/11 01:04:02;;;;;;;13.98;5.32;;;;;;;;;;4982038;28;20093;-77
2023/10/11 01:06:28;;;;;;;14.48;5.38;;;;;;;;;;4979724;28;20354;-76
2023/10/11 01:08:54;;;;;;;13.60;5.70;;;;;;;;;;4981999;28;20230;-77
2023/10/11 01:11:19;;;;;;;13.38;5.22;;;;;;;;;;4982285;28;20010;-77
2023/10/11 01:13:50;;;;;;;14.23;5.30;;;;;;;;;;4974766;28;20053;-77
2023/10/11 01:16:17;;;;;;;15.20;5.25;;;;;;;;;;4984929;28;20033;-77
2023/10/11 01:18:43;;;;;;;12.43;4.88;;;;;;;;;;4972587;28;20034;-77
2023/10/11 01:21:09;;;;;;;12.40;5.10;;;;;;;;;;4983868;28;20089;-77
2023/10/11 01:23:35;;;;;;;14.73;5.25;;;;;;;;;;4979996;28;20029;-77
2023/10/11 01:26:08;;;;;;;18.95;5.45;;;;;;;;;;4974347;28;20026;-77
2023/10/11 01:28:48;;;;;;;15.98;5.05;;;;;;;;;;4978965;28;20026;-75
2023/10/11 01:31:16;;;;;;;12.88;5.30;;;;;;;;;;4954574;28;20463;-78
2023/10/11 01:33:44;;;;;;;13.98;5.18;;;;;;;;;;4982705;28;20038;-78
2023/10/11 01:36:11;;;;;;;9.45;4.72;;;;;;;;;;4977752;28;20077;-77
2023/10/11 01:38:48;;;;;;;12.63;5.00;;;;;;;;;;4979151;28;20030;-78
2023/10/11 01:41:31;;;;;;;14.07;5.05;;;;;;;;;;4984935;28;20030;-77
2023/10/11 01:43:57;;;;;;;11.50;4.78;;;;;;;;;;4980957;28;20157;-78
2023/10/11 01:46:25;;;;;;;12.95;5.07;;;;;;;;;;4977954;28;20111;-78
2023/10/11 01:48:55;;;;;;;12.70;5.20;;;;;;;;;;4955042;28;20018;-77
2023/10/11 01:51:26;;;;;;;13.82;5.57;;;;;;;;;;4976437;28;20023;-77
2023/10/11 01:53:55;;;;;;;14.90;5.10;;;;;;;;;;4976426;28;20037;-76
2023/10/11 01:56:23;;;;;;;13.10;5.13;;;;;;;;;;4985254;28;20033;-78
2023/10/11 01:58:49;;;;;;;14.52;4.68;;;;;;;;;;4974686;28;20034;-77
2023/10/11 02:01:21;;;;;;;12.27;5.20;;;;;;;;;;4981493;28;20516;-79
2023/10/11 02:03:51;;;;;;;11.70;5.32;;;;;;;;;;4979054;28;20027;-77
2023/10/11 02:06:18;;;;;;;15.98;5.20;;;;;;;;;;4980504;28;20049;-77
2023/10/11 02:08:43;;;;;;;13.50;5.03;;;;;;;;;;4976569;28;20030;-77
2023/10/11 02:11:09;;;;;;;11.48;5.05;;;;;;;;;;4977905;28;20022;-77
2023/10/11 02:13:34;;;;;;;18.50;5.20;;;;;;;;;;4976070;28;20026;-76
2023/10/11 02:16:00;;;;;;;18.40;5.35;;;;;;;;;;4975806;28;20026;-77
2023/10/11 02:18:26;;;;;;;14.73;5.60;;;;;;;;;;4988502;28;20191;-77
2023/10/11 02:20:55;;;;;;;13.63;5.25;;;;;;;;;;4968419;28;20763;-75
2023/10/11 02:23:20;;;;;;;11.63;5.13;;;;;;;;;;4969247;28;20026;-76
2023/10/11 02:25:46;;;;;;;10.32;5.20;;;;;;;;;;4975632;28;20041;-78
2023/10/11 02:28:14;;;;;;;12.48;5.05;;;;;;;;;;4971073;28;20489;-77
2023/10/11 02:30:41;;;;;;;13.95;5.45;;;;;;;;;;4971100;28;20092;-77
2023/10/11 02:33:11;;;;;;;13.68;5.15;;;;;;;;;;4972606;28;20033;-78
2023/10/11 02:35:56;;;;;;;13.05;5.20;;;;;;;;;;4985538;28;20019;-77
2023/10/11 02:38:23;;;;;;;12.43;5.05;;;;;;;;;;4981126;28;20141;-77
2023/10/11 02:40:55;;;;;;;14.55;5.03;;;;;;;;;;4977031;28;20069;-77
2023/10/11 02:43:25;;;;;;;14.98;5.22;;;;;;;;;;4980424;28;20083;-76
2023/10/11 02:45:52;;;;;;;12.23;5.30;;;;;;;;;;4982687;28;20037;-77
2023/10/11 02:48:19;;;;;;;12.73;5.05;;;;;;;;;;4980397;28;20054;-77
2023/10/11 02:50:46;;;;;;;11.98;5.38;;;;;;;;;;4975443;28;20027;-77
2023/10/11 02:53:21;;;;;;;14.43;5.07;;;;;;;;;;4973948;28;20088;-77
2023/10/11 02:55:47;;;;;;;11.57;4.93;;;;;;;;;;4959740;28;20041;-77
2023/10/11 02:58:21;;;;;;;15.95;5.22;;;;;;;;;;4981634;28;20523;-77
2023/10/11 03:00:47;;;;;;;13.85;5.07;;;;;;;;;;4984241;28;20030;-76
2023/10/11 03:03:15;;;;;;;14.90;5.25;;;;;;;;;;4978367;28;20077;-77
2023/10/11 03:05:41;;;;;;;14.13;5.47;;;;;;;;;;4966454;28;20038;-77
2023/10/11 03:08:17;;;;;;;12.40;5.28;;;;;;;;;;4986458;28;20030;-77
2023/10/11 03:10:44;;;;;;;15.00;5.60;;;;;;;;;;4979281;28;20085;-77
2023/10/11 03:13:19;;;;;;;12.45;5.40;;;;;;;;;;4978496;28;20544;-77
2023/10/11 03:15:46;;;;;;;;;;;;;;;;;;4978220;28;20022;-76
2023/10/11 03:18:12;;;;;;;12.07;4.82;;;;;;;;;;4959839;28;19960;-77
2023/10/11 03:20:37;;;;;;;14.25;5.70;;;;;;;;;;4979490;28;20034;-77
2023/10/11 03:23:10;;;;;;;11.95;4.60;;;;;;;;;;4965332;28;20571;-77
2023/10/11 03:25:38;;;;;;;10.93;5.13;;;;;;;;;;4978430;28;20042;-78
2023/10/11 03:28:04;;;;;;;16.42;5.30;;;;;;;;;;4976715;28;20026;-78
2023/10/11 03:30:35;;;;;;;13.57;5.10;;;;;;;;;;4985203;28;20365;-77
2023/10/11 03:33:02;;;;;;;16.58;4.95;;;;;;;;;;4974647;28;20652;-78
2023/10/11 03:35:30;;;;;;;12.75;5.28;;;;;;;;;;4977370;28;20022;-77
2023/10/11 03:37:58;;;;;;;16.55;5.43;;;;;;;;;;4974396;28;20034;-77
2023/10/11 03:40:34;;;;;;;11.40;5.05;;;;;;;;;;4972379;28;20076;-78
2023/10/11 03:43:11;;;;;;;14.20;5.00;;;;;;;;;;4968443;28;20046;-77
2023/10/11 03:45:39;;;;;;;10.73;4.70;;;;;;;;;;4981217;28;20042;-77
2023/10/11 03:48:09;;;;;;;16.10;4.90;;;;;;;;;;4974312;28;20584;-79
2023/10/11 03:50:36;;;;;;;12.98;5.22;;;;;;;;;;4970930;28;20034;-78
2023/10/11 03:53:10;;;;;;;13.82;5.30;;;;;;;;;;4972656;28;20148;-77
2023/10/11 03:55:45;;;;;;;17.30;5.32;;;;;;;;;;4975115;28;20038;-77
2023/10/11 03:58:11;;;;;;;17.15;5.18;;;;;;;;;;4979603;28;20034;-77
2023/10/11 04:00:46;;;;;;;13.35;5.00;;;;;;;;;;4984057;28;20038;-78
2023/10/11 04:03:14;;;;;;;14.80;5.03;;;;;;;;;;4979674;28;20022;-77
2023/10/11 04:05:40;;;;;;;13.35;4.80;;;;;;;;;;4984061;28;20030;-77
2023/10/11 04:08:11;;;;;;;11.45;4.90;;;;;;;;;;4979144;28;20030;-77
2023/10/11 04:10:42;;;;;;;13.32;5.07;;;;;;;;;;4980532;28;20096;-77
2023/10/11 04:13:14;;;;;;;14.57;5.10;;;;;;;;;;4972784;28;20101;-77
2023/10/11 04:15:40;;;;;;;9.13;4.65;;;;;;;;;;4980263;28;20311;-77
2023/10/11 04:18:20;;;;;;;11.32;4.72;;;;;;;;;;4982534;28;20030;-77
2023/10/11 04:20:59;;;;;;;13.48;5.53;;;;;;;;;;4980534;28;20042;-77
2023/10/11 04:23:27;;;;;;;12.68;5.00;;;;;;;;;;4972220;28;20065;-77
2023/10/11 04:25:55;;;;;;;13.98;5.00;;;;;;;;;;4979192;28;20022;-78
2023/10/11 04:28:23;;;;;;;14.88;5.35;;;;;;;;;;4979160;28;20064;-75
2023/10/11 04:30:53;;;;;;;12.57;5.18;;;;;;;;;;4985475;28;20030;-77
2023/10/11 04:33:21;;;;;;;20.35;6.38;;;;;;;;;;4984730;28;20097;-78
2023/10/11 04:35:56;;;;;;;15.15;5.70;;;;;;;;;;4979709;28;20033;-77
2023/10/11 04:38:21;;;;;;;18.38;5.53;;;;;;;;;;4960231;28;20249;-76
2023/10/11 04:40:53;;;;;;;17.38;5.38;;;;;;;;;;4977673;28;20045;-77
2023/10/11 04:43:25;;;;;;;16.23;4.80;;;;;;;;;;4980218;28;20060;-77
2023/10/11 04:45:55;;;;;;;12.13;5.07;;;;;;;;;;4982731;28;20034;-76
2023/10/11 04:48:29;;;;;;;14.20;4.88;;;;;;;;;;4976635;28;20038;-78
2023/10/11 04:51:07;;;;;;;14.27;4.78;;;;;;;;;;4970370;28;20044;-76
2023/10/11 04:53:34;;;;;;;15.02;5.10;;;;;;;;;;4976063;28;20026;-75
2023/10/11 04:56:10;;;;;;;14.98;5.50;;;;;;;;;;4971334;28;20038;-77
2023/10/11 04:58:54;;;;;;;14.35;5.45;;;;;;;;;;4980348;28;20605;-76
2023/10/11 05:01:24;;;;;;;13.02;5.13;;;;;;;;;;4955067;28;20038;-77
2023/10/11 05:03:59;;;;;;;11.48;4.82;;;;;;;;;;4967028;28;20022;-76
2023/10/11 05:06:39;;;;;;;16.98;5.15;;;;;;;;;;4968848;28;20042;-77
2023/10/11 05:11:44;;;;;;;13.07;4.85;;;;;;;;;;4968646;28;20804;-77
2023/10/11 05:14:26;;;;;;;17.20;5.20;;;;;;;;;;4966595;28;20097;-77
2023/10/11 05:16:58;;;;;;;15.95;5.03;;;;;;;;;;4964621;28;20033;-76
2023/10/11 05:19:24;;;;;;;15.65;5.40;;;;;;;;;;4968721;28;20037;-78
2023/10/11 05:35:07;;;;;;;18.42;5.13;;;;;;;;;;4938626;28;20061;-78
2023/10/11 05:51:13;;;;;;;18.25;6.35;;;;;;;;;;4949901;28;20085;-83
2023/10/11 05:53:43;;;;;;;17.15;6.07;;;;;;;;;;4935122;28;20034;-81
2023/10/11 05:56:09;;;;;;;19.55;6.30;;;;;;;;;;4935819;28;20793;-79
2023/10/11 05:58:34;;;;;;;15.40;5.97;;;;;;;;;;4938481;28;20035;-80
2023/10/11 06:01:05;;;;;;;15.95;5.68;;;;;;;;;;4946444;28;20022;-79
2023/10/11 06:03:35;;;;;;;14.65;5.82;;;;;;;;;;4946604;28;20022;-79
2023/10/11 06:06:23;;;;;;;15.35;5.50;;;;;;;;;;4935844;28;20467;-79
2023/10/11 06:08:58;;;;;;;18.88;5.72;;;;;;;;;;4938448;28;20175;-81
2023/10/11 06:11:29;;;;;;;17.45;6.50;;;;;;;;;;4930008;28;20034;-78
2023/10/11 06:14:04;;;;;;;18.08;6.60;;;;;;;;;;4945635;28;20105;-77
2023/10/11 06:16:36;;;;;;;16.88;6.13;;;;;;;;;;4938524;28;20396;-77
2023/10/11 06:19:16;;;;;;;21.70;5.95;;;;;;;;;;4947532;28;20031;-77
2023/10/11 06:21:58;;;;;;;18.55;5.97;;;;;;;;;;4931565;28;20035;-79
2023/10/11 06:24:24;;;;;;;15.43;5.32;;;;;;;;;;4949990;28;20037;-80
2023/10/11 06:29:22;;;;;;;14.77;5.20;;;;;;;;;;4949608;28;20023;-80
2023/10/11 06:31:48;;;;;;;15.95;5.68;;;;;;;;;;4939817;28;20715;-80
2023/10/11 06:34:26;;;;;;;19.00;5.57;;;;;;;;;;4940923;28;20051;-83
2023/10/11 06:36:54;;;;;;;15.75;5.40;;;;;;;;;;4947238;28;20030;-80
2023/10/11 06:42:12;;;;;;;14.75;5.32;;;;;;;;;;4940444;28;20035;-79
2023/10/11 06:44:41;;;;;;;19.60;5.55;;;;;;;;;;4953758;28;20031;-81
2023/10/11 06:47:11;;;;;;;18.80;6.18;;;;;;;;;;4948149;28;20285;-79
2023/10/11 06:49:47;;;;;;;16.88;5.53;;;;;;;;;;4948423;28;20030;-79
2023/10/11 06:52:25;;;;;;;16.63;5.47;;;;;;;;;;4945605;28;20023;-80
2023/10/11 06:55:07;;;;;;;19.15;5.70;;;;;;;;;;4953152;28;20096;-79
2023/10/11 06:57:38;;;;;;;17.88;5.70;;;;;;;;;;4947831;28;20026;-80
2023/10/11 07:00:20;;;;;;;15.77;5.93;;;;;;;;;;4931601;28;20629;-80
2023/10/11 07:03:09;;;;;;;16.35;5.70;;;;;;;;;;4954131;28;20034;-80
2023/10/11 07:05:46;;;;;;;23.50;5.90;;;;;;;;;;4944978;28;20153;-79
2023/10/11 07:08:17;;;;;;;19.63;5.82;;;;;;;;;;4951532;28;20027;-79
2023/10/11 07:13:49;;;;;;;21.55;6.40;;;;;;;;;;4930467;28;20034;-80
2023/10/11 07:16:18;;;;;;;23.98;5.82;;;;;;;;;;4934988;28;20030;-81
2023/10/11 07:18:47;;;;;;;16.83;5.82;;;;;;;;;;4931961;28;20400;-80
2023/10/11 07:21:19;;;;;;;13.70;5.13;;;;;;;;;;4932918;28;20597;-81
2023/10/11 07:26:48;;;;;;;17.70;5.30;;;;;;;;;;4951939;28;20027;-81
2023/10/11 07:29:12;;;;;;;17.42;5.80;;;;;;;;;;4942310;28;20113;-80
2023/10/11 07:31:38;;;;;;;15.02;5.30;;;;;;;;;;4937781;28;20509;-80
2023/10/11 07:34:09;;;;;;;16.85;5.20;;;;;;;;;;4897309;28;1096966;-80
2023/10/11 07:36:38;;;;;;;19.13;5.80;;;;;;;;;;4951298;28;20082;-80
2023/10/11 07:39:15;;;;;;;14.23;5.30;;;;;;;;;;4944808;28;20710;-80
2023/10/11 07:41:42;;;;;;;15.63;5.00;;;;;;;;;;4954642;28;20113;-80
2023/10/11 07:44:10;;;;;;;17.42;5.63;;;;;;;;;;4950641;28;20023;-80
2023/10/11 07:46:39;;;;;;;16.77;5.30;;;;;;;;;;4951317;28;20090;-80
2023/10/11 07:49:08;;;;;;;18.17;5.50;;;;;;;;;;4952000;28;20105;-80
2023/10/11 07:51:41;;;;;;;17.60;5.85;;;;;;;;;;4952642;28;20031;-80
2023/10/11 07:54:07;;;;;;;15.68;5.30;;;;;;;;;;4947446;28;20030;-80
2023/10/11 07:56:36;;;;;;;17.15;5.10;;;;;;;;;;4952049;28;20031;-80
2023/10/11 07:59:08;;;;;;;12.30;5.30;;;;;;;;;;4937996;28;20037;-81
2023/10/11 08:01:42;;;;;;;21.10;5.65;;;;;;;;;;4947576;28;20150;-80
2023/10/11 08:04:21;;;;;;;14.32;5.07;;;;;;;;;;4926999;28;20616;-79
2023/10/11 08:06:47;;;;;;;17.85;4.95;;;;;;;;;;4951896;28;20330;-79
2023/10/11 08:09:25;;;;;;;16.45;5.15;;;;;;;;;;4946921;28;20713;-79
2023/10/11 08:11:57;;;;;;;21.60;5.28;;;;;;;;;;4947967;28;20019;-80
2023/10/11 08:14:28;;;;;;;15.77;5.20;;;;;;;;;;4951742;28;20026;-80
2023/10/11 08:16:56;;;;;;;16.38;5.20;;;;;;;;;;4948316;28;20110;-78
2023/10/11 08:19:22;;;;;;;16.88;5.00;;;;;;;;;;4952638;28;20031;-80
2023/10/11 08:21:54;;;;;;;16.63;4.88;;;;;;;;;;4938964;28;20031;-80
2023/10/11 08:24:26;;;;;;;18.08;5.30;;;;;;;;;;4951361;28;20038;-81
2023/10/11 08:27:05;;;;;;;15.30;5.38;;;;;;;;;;4944596;28;20703;-80
2023/10/11 08:29:32;;;;;;;17.30;5.07;;;;;;;;;;4943087;28;20146;-80
2023/10/11 08:31:58;;;;;;;14.88;5.07;;;;;;;;;;4935910;28;20079;-81
2023/10/11 08:34:28;;;;;;;14.70;5.03;;;;;;;;;;4953220;28;20031;-83
2023/10/11 08:36:56;;;;;;;17.98;5.30;;;;;;;;;;4948013;28;20027;-79
2023/10/11 08:39:35;;;;;;;19.58;5.30;;;;;;;;;;4947545;28;20500;-79
2023/10/11 08:42:16;;;;;;;19.42;4.93;;;;;;;;;;4926605;28;20039;-79
2023/10/11 08:44:46;;;;;;;12.38;4.47;;;;;;;;;;4947143;28;20590;-80
2023/10/11 08:47:13;;;;;;;20.10;4.72;;;;;;;;;;4945984;28;20045;-83
2023/10/11 08:49:48;;;;;;;20.50;5.05;;;;;;;;;;4952509;28;20031;-80
2023/10/11 08:52:23;;;;;;;11.88;4.50;;;;;;;;;;4952041;28;20134;-82
2023/10/11 08:54:49;;;;;;;;;;;;;;;;;;4954301;28;20046;-79
2023/10/11 08:57:14;;;;;;;14.63;4.65;;;;;;;;;;4953647;28;20051;-82
2023/10/11 09:00:17;;;;;;;14.68;4.60;;;;;;;;;;4940360;28;20110;-82
2023/10/11 09:02:48;;;;;;;14.35;4.28;;;;;;;;;;4933649;28;20038;-81
2023/10/11 09:05:29;;;;;;;14.75;4.47;;;;;;;;;;4952900;28;20159;-83
2023/10/11 09:07:55;;;;;;;13.00;4.47;;;;;;;;;;4948820;28;20066;-79
2023/10/11 09:10:29;;;;;;;18.70;4.68;;;;;;;;;;4949051;28;20165;-82
2023/10/11 09:12:57;;;;;;;15.23;4.38;;;;;;;;;;4937087;28;20035;-79
2023/10/11 09:15:34;;;;;;;17.02;5.18;;;;;;;;;;4943797;28;20035;-78
2023/10/11 09:18:17;;;;;;;16.13;4.70;;;;;;;;;;4938114;28;20490;-77
2023/10/11 09:20:55;;;;;;;19.00;4.25;;;;;;;;;;4940997;28;20030;-79
2023/10/11 09:23:46;;;;;;;19.73;4.55;;;;;;;;;;4949046;28;20049;-80
2023/10/11 09:26:20;;;;;;;14.40;4.45;;;;;;;;;;4948829;28;20035;-79
2023/10/11 09:28:47;;;;;;;13.30;4.57;;;;;;;;;;4945944;28;20023;-78
2023/10/11 09:31:15;;;;;;;20.23;4.50;;;;;;;;;;4926921;28;20037;-79
2023/10/11 09:33:50;;;;;;;13.20;3.80;;;;;;;;;;4947334;28;20051;-80
2023/10/11 09:36:17;;;;;;;;;;;;;;;;;;4943863;28;20062;-79
2023/10/11 09:38:42;;;;;;;16.33;4.38;;;;;;;;;;4946653;28;20008;-80
2023/10/11 09:41:08;;;;;;;19.75;4.25;;;;;;;;;;4950518;28;20234;-79
2023/10/11 09:43:44;;;;;;;11.15;4.07;;;;;;;;;;4946521;28;20027;-82
2023/10/11 09:46:13;;;;;;;16.20;4.43;;;;;;;;;;4947638;28;20045;-80
2023/10/11 09:48:42;;;;;;;15.43;4.28;;;;;;;;;;4950052;28;20117;-80
2023/10/11 09:51:15;;;;;;;11.75;4.05;;;;;;;;;;4946806;28;20027;-79
2023/10/11 09:53:42;;;;;;;20.40;4.65;;;;;;;;;;4930243;28;20027;-79
2023/10/11 09:56:30;;;;;;;17.52;4.10;;;;;;;;;;4947143;28;20666;-79
2023/10/11 09:59:22;;;;;;;16.50;3.90;;;;;;;;;;4927984;28;20763;-79
2023/10/11 10:02:17;;;;;;;14.32;4.07;;;;;;;;;;4946918;28;20050;-79
2023/10/11 10:04:51;;;;;;;15.88;4.00;;;;;;;;;;4921065;28;20049;-81
2023/10/11 10:07:32;;;;;;;16.92;4.50;;;;;;;;;;4948599;28;20133;-81
2023/10/11 10:10:02;;;;;;;22.50;4.43;;;;;;;;;;4946547;28;20303;-79
2023/10/11 10:12:35;;;;;;;11.77;3.92;;;;;;;;;;4948186;28;20037;-80
2023/10/11 10:15:20;;;;;;;13.15;4.25;;;;;;;;;;4941034;28;20715;-80
2023/10/11 10:18:00;;;;;;;15.43;4.15;;;;;;;;;;4942540;28;20184;-79
2023/10/11 10:20:32;;;;;;;17.42;4.18;;;;;;;;;;4946607;28;20045;-79
2023/10/11 10:23:22;;;;;;;11.57;4.20;;;;;;;;;;4948023;28;20045;-80
2023/10/11 10:26:05;;;;;;;22.13;4.47;;;;;;;;;;4935747;28;20054;-80
2023/10/11 10:28:36;;;;;;;13.82;4.45;;;;;;;;;;4935220;28;20027;-80
2023/10/11 10:31:26;;;;;;;11.80;3.90;;;;;;;;;;4934795;28;20038;-80
2023/10/11 10:34:04;;;;;;;10.50;4.07;;;;;;;;;;4946356;28;20446;-79
2023/10/11 10:36:31;;;;;;;15.27;4.20;;;;;;;;;;4948546;28;20039;-81
2023/10/11 10:41:36;;;;;;;14.27;3.85;;;;;;;;;;4950625;28;20035;-80
2023/10/11 10:44:06;;;;;;;15.32;3.75;;;;;;;;;;4944950;28;20118;-81
2023/10/11 10:46:34;;;;;;;17.88;4.03;;;;;;;;;;4948626;28;20084;-81
2023/10/11 10:49:04;;;;;;;13.60;4.10;;;;;;;;;;4940645;28;20694;-81
2023/10/11 10:51:39;;;;;;;16.52;4.00;;;;;;;;;;4952203;28;20042;-81
2023/10/11 10:54:14;;;;;;;13.13;3.65;;;;;;;;;;4944667;28;20061;-81
2023/10/11 10:56:47;;;;;;;16.13;4.10;;;;;;;;;;4951575;28;20027;-81
2023/10/11 10:59:15;;;;;;;11.93;3.92;;;;;;;;;;4943038;28;20035;-80
2023/10/11 11:01:44;;;;;;;21.17;4.22;;;;;;;;;;4951044;28;20027;-85
2023/10/11 11:04:10;;;;;;;12.00;3.95;;;;;;;;;;4945514;28;20031;-81
2023/10/11 11:06:37;;;;;;;12.90;3.80;;;;;;;;;;4935978;28;20034;-78
2023/10/11 11:09:04;;;;;;;13.10;3.58;;;;;;;;;;4947766;28;20093;-80
2023/10/11 11:34:16;;;;;;;10.57;3.75;;;;;;;;;;5176293;23;20076;-87
2023/10/11 11:57:29;;;;;;;13.52;4.28;;;;;;;;;;4866917;22;20036;-83
2023/10/11 12:00:19;;;;;;;10.30;3.55;;;;;;;;;;4934644;28;20055;-88
2023/10/11 12:02:45;;;;;;;10.70;3.80;;;;;;;;;;4955867;28;20070;-88
2023/10/11 12:05:11;;;;;;;12.82;3.47;;;;;;;;;;4954021;28;20034;-85
2023/10/11 12:07:36;;;;;;;11.02;3.67;;;;;;;;;;4940157;28;20065;-89
2023/10/11 12:10:10;;;;;;;9.45;3.55;;;;;;;;;;4957721;28;20023;-87
2023/10/11 12:12:36;;;;;;;10.35;3.70;;;;;;;;;;4937128;28;20149;-85
2023/10/11 12:15:03;;;;;;;11.70;3.67;;;;;;;;;;4955512;28;20137;-85
2023/10/11 12:17:29;;;;;;;13.43;3.70;;;;;;;;;;4950370;28;20027;-86
2023/10/11 12:19:55;;;;;;;10.23;3.60;;;;;;;;;;4933853;28;20037;-83
2023/10/11 12:22:22;;;;;;;11.48;3.83;;;;;;;;;;4956182;28;20018;-84
2023/10/11 12:24:48;;;;;;;12.00;3.70;;;;;;;;;;4955781;28;20022;-85
2023/10/11 12:27:13;;;;;;;10.15;3.40;;;;;;;;;;4959025;28;20042;-87
2023/10/11 12:29:39;;;;;;;9.45;3.88;;;;;;;;;;4953143;28;20035;-81
2023/10/11 12:32:13;;;;;;;10.38;3.17;;;;;;;;;;4950717;28;20650;-85
2023/10/11 12:34:38;;;;;;;10.45;3.90;;;;;;;;;;4932580;28;20034;-85
2023/10/11 12:37:16;;;;;;;14.38;3.70;;;;;;;;;;4949698;28;20212;-85
2023/10/11 12:39:41;;;;;;;9.55;3.50;;;;;;;;;;4941914;28;20019;-83
2023/10/11 12:42:11;;;;;;;12.48;3.40;;;;;;;;;;4934155;28;20392;-86
2023/10/11 12:44:40;;;;;;;9.05;3.72;;;;;;;;;;4951791;28;20043;-88
2023/10/11 12:47:10;;;;;;;9.73;3.70;;;;;;;;;;4953415;28;20137;-90
2023/10/11 12:49:35;;;;;;;14.35;3.67;;;;;;;;;;4950180;28;20059;-85
2023/10/11 12:52:05;;;;;;;16.70;3.70;;;;;;;;;;4934607;28;20118;-88
2023/10/11 12:54:31;;;;;;;10.32;3.45;;;;;;;;;;4935611;28;20086;-86
2023/10/11 12:56:56;;;;;;;12.20;3.45;;;;;;;;;;4935459;28;20049;-86
2023/10/11 12:59:22;;;;;;;9.55;3.60;;;;;;;;;;4948168;28;20050;-87
2023/10/11 13:01:52;;;;;;;12.38;3.78;;;;;;;;;;4935975;28;20450;-86
2023/10/11 13:04:23;;;;;;;12.77;3.90;;;;;;;;;;4949983;28;20054;-86
2023/10/11 13:06:50;;;;;;;11.18;3.33;;;;;;;;;;4950803;28;20023;-85
2023/10/11 13:09:21;;;;;;;7.80;3.22;;;;;;;;;;4938277;28;21546;-88
2023/10/11 13:11:47;;;;;;;14.55;3.35;;;;;;;;;;4952693;28;20026;-80
2023/10/11 13:14:18;;;;;;;11.38;3.47;;;;;;;;;;4949083;28;20628;-84
2023/10/11 13:16:48;;;;;;;8.95;3.40;;;;;;;;;;4949444;28;20030;-83
2023/10/11 13:19:22;;;;;;;14.45;3.58;;;;;;;;;;4947826;28;20057;-83
2023/10/11 13:21:48;;;;;;;12.00;3.70;;;;;;;;;;4936572;28;20022;-84
2023/10/11 13:24:16;;;;;;;9.60;3.40;;;;;;;;;;4952017;28;20031;-87
2023/10/11 13:26:46;;;;;;;10.02;3.40;;;;;;;;;;4940421;28;20093;-82
2023/10/11 13:29:16;;;;;;;10.98;3.55;;;;;;;;;;4942991;28;20027;-82
2023/10/11 13:31:56;;;;;;;9.65;3.70;;;;;;;;;;4951734;28;20034;-79
2023/10/11 13:34:29;;;;;;;8.38;3.25;;;;;;;;;;4948837;28;20109;-82
2023/10/11 13:36:57;;;;;;;11.07;3.85;;;;;;;;;;4952581;28;20098;-81
2023/10/11 13:39:26;;;;;;;10.55;3.60;;;;;;;;;;4954267;28;20100;-80
2023/10/11 13:42:04;;;;;;;12.30;3.47;;;;;;;;;;4931562;28;20035;-81
2023/10/11 13:44:32;;;;;;;11.55;3.47;;;;;;;;;;4934087;28;20027;-80
2023/10/11 13:46:58;;;;;;;13.70;3.50;;;;;;;;;;4940576;28;20135;-80
2023/10/11 13:49:25;;;;;;;8.43;3.40;;;;;;;;;;4953794;28;20598;-80
2023/10/11 13:51:59;;;;;;;12.13;3.38;;;;;;;;;;4954482;28;20038;-81
2023/10/11 13:57:00;;;;;;;12.75;3.40;;;;;;;;;;4940319;28;20026;-80
2023/10/11 13:59:28;;;;;;;7.43;3.40;;;;;;;;;;4936795;28;20051;-80
2023/10/11 14:04:46;;;;;;;12.23;3.45;;;;;;;;;;4946491;28;20118;-79
2023/10/11 14:07:25;;;;;;;12.60;3.53;;;;;;;;;;4940697;28;20402;-79
2023/10/11 14:09:54;;;;;;;7.72;3.15;;;;;;;;;;4948326;28;20026;-75
2023/10/11 14:12:31;;;;;;;9.60;3.40;;;;;;;;;;4951053;28;20030;-80
2023/10/11 14:14:56;;;;;;;10.93;3.80;;;;;;;;;;4936549;28;20093;-81
2023/10/11 14:17:24;;;;;;;7.95;3.58;;;;;;;;;;4945726;28;20022;-80
2023/10/11 14:19:53;;;;;;;11.38;3.80;;;;;;;;;;4936033;28;20471;-81
2023/10/11 14:22:21;;;;;;;12.57;3.47;;;;;;;;;;4954634;28;20222;-79
2023/10/11 14:24:48;;;;;;;11.70;3.42;;;;;;;;;;4944361;28;20042;-78
2023/10/11 14:27:17;;;;;;;12.68;4.00;;;;;;;;;;4954724;28;20117;-78
2023/10/11 14:29:44;;;;;;;10.48;3.50;;;;;;;;;;4949601;28;20030;-78
2023/10/11 14:32:10;;;;;;;9.82;3.50;;;;;;;;;;4947861;28;20080;-82
2023/10/11 14:34:36;;;;;;;10.75;3.45;;;;;;;;;;4939479;28;20996;-81
2023/10/11 14:37:03;;;;;;;9.27;3.40;;;;;;;;;;4952856;28;20569;-81
2023/10/11 14:39:29;;;;;;;13.35;3.35;;;;;;;;;;4960492;28;20034;-79
2023/10/11 14:41:56;;;;;;;10.80;3.60;;;;;;;;;;4961608;28;20022;-78
2023/10/11 14:44:22;;;;;;;11.05;3.60;;;;;;;;;;4961431;28;20207;-82
2023/10/11 14:46:48;;;;;;;11.93;3.60;;;;;;;;;;4963743;28;20029;-79
2023/10/11 14:49:19;;;;;;;12.35;3.60;;;;;;;;;;4963633;28;20035;-81
2023/10/11 14:51:45;;;;;;;11.02;3.90;;;;;;;;;;4958145;28;20146;-82
2023/10/11 14:54:12;;;;;;;11.77;3.63;;;;;;;;;;4958180;28;20117;-79
2023/10/11 14:56:38;;;;;;;8.68;3.40;;;;;;;;;;4964820;28;20078;-82
2023/10/11 14:59:03;;;;;;;13.85;3.80;;;;;;;;;;4950805;28;20047;-85
2023/10/11 15:01:33;;;;;;;10.75;3.47;;;;;;;;;;4961295;28;20098;-82
2023/10/11 15:04:09;;;;;;;11.88;3.38;;;;;;;;;;4955071;28;20200;-83
2023/10/11 15:06:37;;;;;;;12.70;3.78;;;;;;;;;;4954158;28;20030;-84
2023/10/11 15:09:08;;;;;;;13.43;3.42;;;;;;;;;;4953645;28;20030;-85
2023/10/11 15:11:34;;;;;;;11.68;3.47;;;;;;;;;;4961426;28;20034;-85
2023/10/11 15:14:03;;;;;;;12.18;3.63;;;;;;;;;;4958541;28;20050;-84
2023/10/11 15:16:29;;;;;;;12.60;3.58;;;;;;;;;;4962631;28;20074;-82
2023/10/11 15:18:54;;;;;;;14.00;3.50;;;;;;;;;;4938635;28;20027;-83
2023/10/11 15:21:22;;;;;;;11.40;3.50;;;;;;;;;;4951482;28;20342;-85
2023/10/11 15:23:48;;;;;;;15.45;3.25;;;;;;;;;;4953233;28;20027;-83
2023/10/11 15:26:16;;;;;;;10.10;3.42;;;;;;;;;;4950797;28;20093;-83
2023/10/11 15:28:42;;;;;;;18.75;3.70;;;;;;;;;;4950505;28;20039;-82
2023/10/11 15:31:07;;;;;;;12.73;3.97;;;;;;;;;;4950967;28;20023;-78
2023/10/11 15:33:37;;;;;;;12.30;3.22;;;;;;;;;;4946022;28;20030;-80
2023/10/11 15:36:06;;;;;;;7.95;3.25;;;;;;;;;;4953968;28;20049;-84
2023/10/11 15:38:32;;;;;;;14.50;3.53;;;;;;;;;;4952036;28;20015;-83
2023/10/11 15:41:00;;;;;;;10.95;4.00;;;;;;;;;;4941341;28;20018;-78
2023/10/11 15:43:26;;;;;;;8.48;3.25;;;;;;;;;;4957858;28;20019;-79
2023/10/11 15:45:51;;;;;;;13.07;3.67;;;;;;;;;;4953318;28;20035;-79
2023/10/11 15:48:18;;;;;;;10.63;3.70;;;;;;;;;;4950292;28;20301;-82
2023/10/11 15:50:43;;;;;;;11.30;3.20;;;;;;;;;;4954401;28;20027;-78
2023/10/11 15:53:10;;;;;;;8.93;3.33;;;;;;;;;;4955925;28;20019;-81
2023/10/11 15:55:43;;;;;;;13.85;3.78;;;;;;;;;;4961948;28;20058;-80
2023/10/11 15:58:09;;;;;;;14.68;3.65;;;;;;;;;;4956385;28;20503;-81
2023/10/11 16:00:41;;;;;;;12.10;3.65;;;;;;;;;;4947771;28;20121;-82
2023/10/11 16:03:09;;;;;;;15.00;3.70;;;;;;;;;;4957979;28;20030;-82
2023/10/11 16:05:35;;;;;;;11.88;3.53;;;;;;;;;;4967388;28;20018;-78
2023/10/11 16:08:00;;;;;;;9.98;3.40;;;;;;;;;;4961196;28;20034;-79
2023/10/11 16:10:26;;;;;;;14.77;4.20;;;;;;;;;;4956334;28;20249;-80
2023/10/11 16:12:52;;;;;;;11.23;3.72;;;;;;;;;;4938726;28;20034;-79
2023/10/11 16:15:18;;;;;;;14.10;3.63;;;;;;;;;;4961219;28;20523;-80
2023/10/11 16:17:44;;;;;;;11.15;3.60;;;;;;;;;;4961729;28;20046;-80
2023/10/11 16:20:10;;;;;;;14.48;3.65;;;;;;;;;;4967797;28;20050;-80
2023/10/11 16:22:40;;;;;;;14.45;4.07;;;;;;;;;;4963020;28;20030;-79
2023/10/11 16:25:09;;;;;;;12.80;4.00;;;;;;;;;;4952562;28;20026;-80